Time;durP1;ratioP1;P1;durP2;ratioP2;P2;SDS_P1;SDS_P2;PMS_P1;PMS_P2;Temp;Humidity;BMP_temperature;BMP_pressure;BME280_temperature;BME280_humidity;BME280_pressure;Samples;Min_cycle;Max_cycle;Signal;HPM_P1;HPM_P2
2021/09/13 00:00:09;;;;;;;10.30;7.60;;;17.70;99.90;;;;;;5075097;28;20455;-77
2021/09/13 00:02:37;;;;;;;10.03;7.60;;;17.60;99.90;;;;;;5074855;28;20486;-77
2021/09/13 00:05:06;;;;;;;8.80;7.90;;;17.60;99.90;;;;;;5075109;28;20493;-77
2021/09/13 00:07:37;;;;;;;12.43;8.13;;;17.60;99.90;;;;;;5074955;28;20505;-77
2021/09/13 00:10:05;;;;;;;11.13;8.47;;;17.60;99.90;;;;;;5074885;28;20808;-77
2021/09/13 00:12:31;;;;;;;9.57;7.73;;;17.50;99.90;;;;;;5075012;28;20466;-77
2021/09/13 00:15:00;;;;;;;10.50;8.30;;;17.50;99.90;;;;;;5075189;28;20473;-77
2021/09/13 00:17:30;;;;;;;8.53;7.73;;;17.50;99.90;;;;;;5074911;28;20450;-77
2021/09/13 00:19:58;;;;;;;8.30;7.47;;;17.50;99.90;;;;;;5074809;28;20943;-77
2021/09/13 00:22:25;;;;;;;10.90;8.83;;;17.50;99.90;;;;;;5075025;28;20462;-77
2021/09/13 00:24:54;;;;;;;10.80;8.20;;;17.40;99.90;;;;;;5074902;28;20807;-77
2021/09/13 00:27:21;;;;;;;9.43;8.00;;;17.50;99.90;;;;;;5075184;28;20497;-77
2021/09/13 00:29:47;;;;;;;8.77;7.80;;;17.40;99.90;;;;;;5074565;28;20465;-77
2021/09/13 00:32:16;;;;;;;9.13;7.17;;;17.40;99.90;;;;;;5075208;28;20459;-76
2021/09/13 00:34:43;;;;;;;11.73;7.97;;;17.40;99.90;;;;;;5074891;28;20807;-78
2021/09/13 00:37:12;;;;;;;10.67;8.60;;;17.50;99.90;;;;;;5074913;28;20454;-77
2021/09/13 00:39:38;;;;;;;9.03;8.13;;;17.40;99.90;;;;;;5074556;28;20458;-78
2021/09/13 00:42:06;;;;;;;10.40;8.10;;;17.40;99.90;;;;;;5074589;28;20458;-77
2021/09/13 00:44:32;;;;;;;11.60;9.20;;;17.40;99.90;;;;;;5074268;28;20465;-77
2021/09/13 00:47:00;;;;;;;9.07;8.17;;;17.30;99.90;;;;;;5074580;28;20479;-77
2021/09/13 00:49:29;;;;;;;13.67;8.37;;;17.30;99.90;;;;;;5074722;28;20512;-77
2021/09/13 00:51:55;;;;;;;9.77;8.67;;;17.30;99.90;;;;;;5074583;28;20794;-77
2021/09/13 00:54:26;;;;;;;10.13;8.70;;;17.30;99.90;;;;;;5074635;28;20469;-77
2021/09/13 00:56:53;;;;;;;9.47;8.33;;;17.20;99.90;;;;;;5074633;28;20450;-77
2021/09/13 00:59:20;;;;;;;9.70;8.70;;;17.20;99.90;;;;;;5077016;28;20470;-77
2021/09/13 01:01:49;;;;;;;10.17;8.00;;;17.20;99.90;;;;;;5077714;28;20784;-77
2021/09/13 01:04:16;;;;;;;12.53;8.90;;;17.10;99.90;;;;;;5076169;28;20455;-77
2021/09/13 01:06:43;;;;;;;9.33;8.23;;;17.10;99.90;;;;;;5076883;28;20809;-77
2021/09/13 01:09:11;;;;;;;12.13;9.10;;;17.10;99.90;;;;;;5077302;28;20458;-77
2021/09/13 01:11:40;;;;;;;14.43;8.60;;;17.10;99.90;;;;;;5076101;28;20506;-77
2021/09/13 01:14:07;;;;;;;8.83;8.00;;;17.00;99.90;;;;;;5077721;28;20454;-78
2021/09/13 01:16:33;;;;;;;9.70;8.67;;;17.00;99.90;;;;;;5080717;28;20462;-78
2021/09/13 01:19:00;;;;;;;13.97;9.93;;;17.00;99.90;;;;;;5080611;28;20454;-77
2021/09/13 01:21:29;;;;;;;13.30;8.90;;;16.90;99.90;;;;;;5081251;28;20462;-77
2021/09/13 01:23:57;;;;;;;11.00;9.90;;;16.90;99.90;;;;;;5080691;28;20486;-77
2021/09/13 01:26:26;;;;;;;10.83;8.10;;;16.90;99.90;;;;;;5080881;28;20460;-77
2021/09/13 01:28:53;;;;;;;9.73;8.13;;;16.90;99.90;;;;;;5082134;28;20490;-77
2021/09/13 01:31:19;;;;;;;14.63;8.80;;;16.80;99.90;;;;;;5080858;28;20470;-77
2021/09/13 01:33:46;;;;;;;11.37;8.87;;;16.80;99.90;;;;;;5078711;28;20502;-77
2021/09/13 01:36:13;;;;;;;9.17;8.27;;;16.80;99.90;;;;;;5078670;28;20465;-77
2021/09/13 01:38:40;;;;;;;9.90;8.90;;;16.80;99.90;;;;;;5078461;28;20463;-77
2021/09/13 01:41:08;;;;;;;10.87;8.30;;;16.70;99.90;;;;;;5078593;28;20454;-77
2021/09/13 01:43:37;;;;;;;9.57;8.50;;;16.70;99.90;;;;;;5078985;28;20496;-77
2021/09/13 01:46:05;;;;;;;12.80;8.93;;;16.70;99.90;;;;;;5078361;28;20846;-77
2021/09/13 01:48:34;;;;;;;13.20;8.10;;;16.70;99.90;;;;;;5078535;28;20493;-77
2021/09/13 01:51:00;;;;;;;11.70;9.00;;;16.70;99.90;;;;;;5078266;28;20945;-77
2021/09/13 01:53:27;;;;;;;9.97;8.30;;;16.70;99.90;;;;;;5078772;28;20466;-77
2021/09/13 01:55:54;;;;;;;10.77;8.63;;;16.70;99.90;;;;;;5078358;28;20469;-77
2021/09/13 01:58:22;;;;;;;10.13;8.47;;;16.70;99.90;;;;;;5078195;28;20516;-77
2021/09/13 02:00:50;;;;;;;9.93;8.67;;;16.60;99.90;;;;;;5078577;28;20470;-77
2021/09/13 02:03:17;;;;;;;11.13;8.90;;;16.60;99.90;;;;;;5078595;28;20516;-77
2021/09/13 02:05:44;;;;;;;9.30;8.40;;;16.60;99.90;;;;;;5078587;28;20510;-77
2021/09/13 02:08:11;;;;;;;10.43;8.70;;;16.60;99.90;;;;;;5078634;28;20481;-77
2021/09/13 02:10:38;;;;;;;11.50;8.83;;;16.60;99.90;;;;;;5077417;28;20478;-77
2021/09/13 02:13:07;;;;;;;10.07;8.97;;;16.60;99.90;;;;;;5078513;28;20845;-77
2021/09/13 02:15:35;;;;;;;9.03;8.13;;;16.60;99.90;;;;;;5078477;28;20818;-77
2021/09/13 02:18:04;;;;;;;9.63;7.70;;;16.60;99.90;;;;;;5078695;28;20450;-77
2021/09/13 02:20:31;;;;;;;12.67;8.37;;;16.60;99.90;;;;;;5078505;28;20469;-77
2021/09/13 02:22:57;;;;;;;10.23;9.20;;;16.50;99.90;;;;;;5077513;28;20838;-77
2021/09/13 02:25:24;;;;;;;10.60;8.00;;;16.50;99.90;;;;;;5076087;28;20455;-78
2021/09/13 02:27:51;;;;;;;12.80;9.17;;;16.50;99.90;;;;;;5077584;28;20486;-77
2021/09/13 02:30:17;;;;;;;10.27;8.47;;;16.50;99.90;;;;;;5077241;28;20761;-77
2021/09/13 02:32:45;;;;;;;10.60;8.97;;;16.40;99.90;;;;;;5077223;28;20787;-77
2021/09/13 02:35:12;;;;;;;10.30;9.30;;;16.40;99.90;;;;;;5076860;28;20465;-77
2021/09/13 02:37:39;;;;;;;12.93;9.10;;;16.30;99.90;;;;;;5077078;28;20458;-77
2021/09/13 02:40:07;;;;;;;15.67;8.70;;;16.30;99.90;;;;;;5076972;28;20458;-76
2021/09/13 02:42:34;;;;;;;10.33;8.67;;;16.30;99.90;;;;;;5076890;28;20472;-77
2021/09/13 02:45:01;;;;;;;11.27;9.20;;;16.30;99.90;;;;;;5076631;28;20498;-76
2021/09/13 02:47:31;;;;;;;9.53;8.53;;;16.30;99.90;;;;;;5076743;28;20504;-77
2021/09/13 02:49:59;;;;;;;11.13;8.03;;;16.30;99.90;;;;;;5076601;28;20523;-77
2021/09/13 02:52:26;;;;;;;11.60;8.83;;;16.20;99.90;;;;;;5077017;28;20467;-77
2021/09/13 02:54:52;;;;;;;12.60;8.97;;;16.30;99.90;;;;;;5076724;28;20470;-77
2021/09/13 02:57:19;;;;;;;11.47;9.07;;;16.30;99.90;;;;;;5076231;28;20471;-77
2021/09/13 02:59:47;;;;;;;9.90;8.90;;;16.30;99.90;;;;;;5076502;28;20456;-76
2021/09/13 03:02:14;;;;;;;9.30;8.30;;;16.20;99.90;;;;;;5076644;28;20454;-76
2021/09/13 03:04:40;;;;;;;13.33;9.63;;;16.20;99.90;;;;;;5076296;28;20462;-76
2021/09/13 03:07:08;;;;;;;9.23;8.40;;;16.20;99.90;;;;;;5077242;28;20764;-77
2021/09/13 03:09:35;;;;;;;12.00;9.30;;;16.20;99.90;;;;;;5076599;28;20458;-77
2021/09/13 03:12:05;;;;;;;11.53;9.67;;;16.20;99.90;;;;;;5076954;28;20464;-77
2021/09/13 03:14:32;;;;;;;10.77;9.67;;;16.20;99.90;;;;;;5075963;28;20451;-77
2021/09/13 03:16:59;;;;;;;11.33;9.80;;;16.20;99.90;;;;;;5076338;28;20458;-77
2021/09/13 03:19:26;;;;;;;13.30;10.23;;;16.20;99.90;;;;;;5076313;28;20457;-77
2021/09/13 03:21:53;;;;;;;11.80;9.80;;;16.10;99.90;;;;;;5076013;28;20469;-77
2021/09/13 03:24:21;;;;;;;11.70;8.83;;;16.00;99.90;;;;;;5076285;28;20469;-77
2021/09/13 03:26:48;;;;;;;11.07;9.80;;;16.00;99.90;;;;;;5076893;28;20498;-77
2021/09/13 03:29:14;;;;;;;11.60;10.03;;;16.00;99.90;;;;;;5076976;28;20479;-77
2021/09/13 03:31:41;;;;;;;13.93;10.47;;;16.00;99.90;;;;;;5077395;28;20810;-77
2021/09/13 03:34:08;;;;;;;12.00;10.63;;;16.00;99.90;;;;;;5077248;28;20457;-77
2021/09/13 03:36:38;;;;;;;15.10;10.30;;;15.90;99.90;;;;;;5076834;28;20467;-78
2021/09/13 03:39:05;;;;;;;11.43;9.90;;;15.90;99.90;;;;;;5077625;28;20447;-77
2021/09/13 03:41:33;;;;;;;12.17;10.43;;;15.90;99.90;;;;;;5076991;28;20468;-77
2021/09/13 03:44:00;;;;;;;10.20;9.10;;;15.80;99.90;;;;;;5076939;28;20576;-76
2021/09/13 03:46:27;;;;;;;11.37;10.27;;;15.80;99.90;;;;;;5076465;28;20462;-76
2021/09/13 03:48:54;;;;;;;11.67;10.43;;;15.80;99.90;;;;;;5075971;28;20530;-77
2021/09/13 03:51:20;;;;;;;10.43;9.20;;;15.80;99.90;;;;;;5076839;28;20458;-76
2021/09/13 03:53:47;;;;;;;11.40;9.43;;;15.80;99.90;;;;;;5079379;28;20461;-79
2021/09/13 03:56:14;;;;;;;9.47;8.47;;;15.80;99.90;;;;;;5077831;28;20461;-78
2021/09/13 03:58:43;;;;;;;11.67;8.90;;;15.80;99.90;;;;;;5077773;28;20451;-78
2021/09/13 04:01:10;;;;;;;11.20;8.47;;;15.90;99.90;;;;;;5082108;28;20459;-78
2021/09/13 04:03:43;;;;;;;8.80;7.90;;;15.90;99.90;;;;;;5078954;28;20537;-78
2021/09/13 04:06:18;;;;;;;9.23;8.33;;;15.90;99.90;;;;;;5078757;28;20450;-76
2021/09/13 04:09:01;;;;;;;8.90;8.00;;;15.90;99.90;;;;;;5076060;28;20461;-77
2021/09/13 04:11:38;;;;;;;11.30;7.90;;;16.00;99.90;;;;;;5075971;28;20512;-77
2021/09/13 04:14:06;;;;;;;8.80;6.70;;;16.00;99.90;;;;;;5076088;28;20739;-77
2021/09/13 04:16:33;;;;;;;7.40;6.63;;;15.90;99.90;;;;;;5075149;28;20459;-77
2021/09/13 04:19:00;;;;;;;9.10;7.53;;;15.90;99.90;;;;;;5075337;28;20497;-77
2021/09/13 04:21:29;;;;;;;10.43;7.90;;;15.90;99.90;;;;;;5075388;28;20560;-77
2021/09/13 04:23:56;;;;;;;9.03;6.57;;;15.90;99.90;;;;;;5075295;28;20470;-77
2021/09/13 04:26:22;;;;;;;9.07;6.67;;;15.90;99.90;;;;;;5074690;28;20496;-78
2021/09/13 04:28:49;;;;;;;8.70;7.00;;;15.90;99.90;;;;;;5074677;28;20509;-77
2021/09/13 04:31:18;;;;;;;9.40;6.97;;;15.80;99.90;;;;;;5074857;28;20458;-78
2021/09/13 04:33:47;;;;;;;11.40;7.57;;;15.80;99.90;;;;;;5074708;28;20765;-77
2021/09/13 04:36:13;;;;;;;12.90;6.97;;;15.80;99.90;;;;;;5075682;28;20501;-77
2021/09/13 04:38:40;;;;;;;7.90;7.10;;;15.80;99.90;;;;;;5075153;28;20930;-77
2021/09/13 04:41:07;;;;;;;8.37;6.80;;;15.70;99.90;;;;;;5075124;28;20458;-76
2021/09/13 04:43:33;;;;;;;8.87;6.67;;;15.70;99.90;;;;;;5074714;28;20462;-77
2021/09/13 04:46:03;;;;;;;9.70;6.90;;;15.70;99.90;;;;;;5074453;28;20454;-76
2021/09/13 04:48:31;;;;;;;9.10;6.90;;;15.70;99.90;;;;;;5074180;28;20494;-76
2021/09/13 04:50:58;;;;;;;8.00;6.90;;;15.70;99.90;;;;;;5075308;28;20464;-77
2021/09/13 04:53:25;;;;;;;7.40;6.70;;;15.70;99.90;;;;;;5075341;28;20462;-77
2021/09/13 04:55:51;;;;;;;9.00;6.50;;;15.70;99.90;;;;;;5074717;28;20461;-77
2021/09/13 04:58:18;;;;;;;6.87;6.10;;;15.70;99.90;;;;;;5074715;28;20467;-77
2021/09/13 05:00:45;;;;;;;6.70;6.10;;;15.70;99.90;;;;;;5074523;28;20528;-76
2021/09/13 05:03:11;;;;;;;7.63;6.47;;;15.60;99.90;;;;;;5074844;28;20462;-77
2021/09/13 05:05:39;;;;;;;6.77;5.87;;;15.60;99.90;;;;;;5073944;28;20915;-77
2021/09/13 05:08:06;;;;;;;6.90;5.70;;;15.60;99.90;;;;;;5074671;28;20535;-77
2021/09/13 05:10:33;;;;;;;7.90;6.20;;;15.60;99.90;;;;;;5073960;28;20501;-77
2021/09/13 05:13:00;;;;;;;6.50;5.90;;;15.60;99.90;;;;;;5074352;28;20469;-77
2021/09/13 05:15:28;;;;;;;10.10;6.97;;;15.60;99.90;;;;;;5074569;28;20462;-76
2021/09/13 05:17:54;;;;;;;6.90;6.30;;;15.60;99.90;;;;;;5075534;28;20640;-77
2021/09/13 05:20:21;;;;;;;11.87;6.30;;;15.60;99.90;;;;;;5075322;28;20458;-77
2021/09/13 05:22:49;;;;;;;7.70;6.30;;;15.60;99.90;;;;;;5075099;28;20925;-77
2021/09/13 05:25:17;;;;;;;7.93;5.90;;;15.60;99.90;;;;;;5075371;28;20466;-78
2021/09/13 05:27:44;;;;;;;6.70;5.70;;;15.60;99.90;;;;;;5075239;28;20458;-78
2021/09/13 05:30:12;;;;;;;9.43;6.40;;;15.60;99.90;;;;;;5074861;28;20927;-77
2021/09/13 05:32:38;;;;;;;6.73;6.03;;;15.60;99.90;;;;;;5075551;28;20472;-77
2021/09/13 05:35:06;;;;;;;7.63;6.30;;;15.60;99.90;;;;;;5075758;28;20466;-77
2021/09/13 05:37:33;;;;;;;7.00;6.03;;;15.60;99.90;;;;;;5075299;28;20476;-77
2021/09/13 05:40:04;;;;;;;7.10;5.87;;;15.60;99.90;;;;;;5075928;28;20477;-77
2021/09/13 05:42:30;;;;;;;8.87;5.77;;;15.60;99.90;;;;;;5075340;28;20533;-77
2021/09/13 05:44:57;;;;;;;7.33;6.37;;;15.60;99.90;;;;;;5074954;28;20459;-77
2021/09/13 05:47:24;;;;;;;6.87;6.17;;;15.60;99.90;;;;;;5077556;28;20958;-77
2021/09/13 05:49:50;;;;;;;11.23;6.60;;;15.70;99.90;;;;;;5080341;28;20478;-77
2021/09/13 05:52:18;;;;;;;7.83;5.77;;;15.70;99.90;;;;;;5077484;28;20473;-77
2021/09/13 05:54:45;;;;;;;8.13;5.87;;;15.70;99.90;;;;;;5075217;28;20465;-78
2021/09/13 05:57:13;;;;;;;16.40;5.90;;;15.70;99.90;;;;;;5074254;28;20524;-77
2021/09/13 05:59:39;;;;;;;7.23;5.50;;;15.70;99.90;;;;;;5074410;28;20453;-77
2021/09/13 06:02:07;;;;;;;6.10;5.40;;;15.70;99.90;;;;;;5076375;28;20453;-77
2021/09/13 06:04:33;;;;;;;5.57;4.90;;;15.80;99.90;;;;;;5082311;28;20473;-77
2021/09/13 06:07:00;;;;;;;5.57;4.60;;;15.80;99.90;;;;;;5080656;28;20467;-78
2021/09/13 06:09:27;;;;;;;5.43;4.93;;;15.80;99.90;;;;;;5078268;28;20487;-77
2021/09/13 06:11:54;;;;;;;7.60;5.30;;;15.80;99.90;;;;;;5082555;28;20466;-78
2021/09/13 06:14:22;;;;;;;9.33;5.00;;;15.80;99.90;;;;;;5082645;28;20454;-77
2021/09/13 06:16:48;;;;;;;11.27;5.33;;;15.90;99.90;;;;;;5078088;28;20914;-77
2021/09/13 06:19:15;;;;;;;5.70;5.00;;;15.90;99.90;;;;;;5078224;28;20477;-77
2021/09/13 06:21:42;;;;;;;8.23;4.70;;;15.90;99.90;;;;;;5078030;28;20451;-78
2021/09/13 06:24:11;;;;;;;5.47;4.50;;;16.00;99.90;;;;;;5078125;28;20458;-77
2021/09/13 06:26:39;;;;;;;5.50;4.60;;;16.00;99.90;;;;;;5078241;28;20462;-78
2021/09/13 06:29:07;;;;;;;4.90;4.10;;;16.00;99.90;;;;;;5078507;28;20478;-77
2021/09/13 06:31:35;;;;;;;5.40;4.40;;;16.10;99.90;;;;;;5078840;28;20787;-77
2021/09/13 06:34:02;;;;;;;10.30;4.90;;;16.10;99.90;;;;;;5078107;28;20466;-77
2021/09/13 06:36:29;;;;;;;8.10;4.33;;;16.20;99.90;;;;;;5078336;28;20949;-77
2021/09/13 06:38:55;;;;;;;5.17;4.20;;;16.20;99.90;;;;;;5077727;28;20815;-77
2021/09/13 06:41:22;;;;;;;7.00;4.00;;;16.30;99.90;;;;;;5078287;28;20489;-78
2021/09/13 06:43:49;;;;;;;4.53;3.93;;;16.30;99.90;;;;;;5078067;28;20918;-77
2021/09/13 06:46:21;;;;;;;5.83;3.27;;;16.40;99.90;;;;;;5078095;28;20454;-78
2021/09/13 06:48:50;;;;;;;7.50;3.90;;;16.40;99.90;;;;;;5078203;28;20486;-77
2021/09/13 06:51:18;;;;;;;3.93;3.47;;;16.50;99.90;;;;;;5078189;28;20459;-77
2021/09/13 06:53:45;;;;;;;5.07;4.03;;;16.50;99.90;;;;;;5082622;28;20841;-77
2021/09/13 06:56:13;;;;;;;6.27;3.87;;;16.50;99.90;;;;;;5082710;28;20531;-78
2021/09/13 06:58:40;;;;;;;4.43;3.50;;;16.60;99.90;;;;;;5078191;28;20470;-77
2021/09/13 07:01:07;;;;;;;4.90;3.37;;;16.60;99.90;;;;;;5078022;28;20455;-78
2021/09/13 07:03:34;;;;;;;5.13;3.10;;;16.70;99.90;;;;;;5078175;28;20455;-78
2021/09/13 07:06:03;;;;;;;5.70;3.27;;;16.80;99.90;;;;;;5078343;28;20463;-77
2021/09/13 07:08:29;;;;;;;6.10;3.07;;;16.90;99.90;;;;;;5078012;28;20489;-77
2021/09/13 07:10:56;;;;;;;4.03;2.67;;;16.90;99.90;;;;;;5078586;28;20819;-77
2021/09/13 07:13:23;;;;;;;4.83;3.20;;;17.00;99.90;;;;;;5077943;28;20458;-78
2021/09/13 07:15:50;;;;;;;4.73;2.70;;;17.00;99.90;;;;;;5077794;28;20786;-78
2021/09/13 07:18:16;;;;;;;3.10;2.73;;;17.10;99.90;;;;;;5076899;28;20466;-78
2021/09/13 07:20:48;;;;;;;3.93;3.17;;;17.00;99.90;;;;;;5077257;28;20949;-78
2021/09/13 07:23:16;;;;;;;4.50;4.10;;;17.00;99.90;;;;;;5076990;28;20537;-78
2021/09/13 07:25:43;;;;;;;9.23;3.67;;;17.00;99.90;;;;;;5076310;28;20458;-77
2021/09/13 07:28:10;;;;;;;4.77;2.97;;;17.10;99.90;;;;;;5077286;28;20461;-78
2021/09/13 07:30:39;;;;;;;4.73;2.80;;;17.10;99.90;;;;;;5077616;28;20962;-78
2021/09/13 07:33:06;;;;;;;3.20;2.77;;;17.20;99.90;;;;;;5077208;28;20459;-79
2021/09/13 07:35:33;;;;;;;5.17;3.00;;;17.20;99.90;;;;;;5077676;28;20462;-77
2021/09/13 07:38:00;;;;;;;3.80;2.43;;;17.20;99.90;;;;;;5078183;28;20463;-78
2021/09/13 07:40:28;;;;;;;5.03;3.27;;;17.20;99.90;;;;;;5078383;28;20929;-78
2021/09/13 07:42:55;;;;;;;3.43;2.80;;;17.20;99.90;;;;;;5078149;28;20462;-78
2021/09/13 07:45:22;;;;;;;3.97;2.47;;;17.30;99.90;;;;;;5076576;28;20472;-78
2021/09/13 07:47:52;;;;;;;3.10;2.60;;;17.40;99.90;;;;;;5075835;28;20458;-77
2021/09/13 07:50:19;;;;;;;4.97;2.90;;;17.40;99.90;;;;;;5076523;28;20510;-79
2021/09/13 07:52:45;;;;;;;4.30;2.90;;;17.40;99.90;;;;;;5077570;28;20809;-78
2021/09/13 07:55:13;;;;;;;3.50;3.00;;;17.50;99.90;;;;;;5076975;28;20466;-78
2021/09/13 07:57:42;;;;;;;3.20;2.90;;;17.60;99.90;;;;;;5077791;28;20758;-78
2021/09/13 08:00:10;;;;;;;4.93;3.10;;;17.60;99.90;;;;;;5076346;28;20485;-77
2021/09/13 08:02:36;;;;;;;2.93;2.73;;;17.70;99.90;;;;;;5075809;28;20458;-77
2021/09/13 08:05:04;;;;;;;5.50;2.90;;;17.70;99.90;;;;;;5077685;28;20459;-77
2021/09/13 08:07:30;;;;;;;4.93;1.90;;;17.80;99.90;;;;;;5078241;28;20485;-78
2021/09/13 08:09:57;;;;;;;5.17;2.50;;;17.90;99.90;;;;;;5076354;28;20493;-78
2021/09/13 08:12:24;;;;;;;4.97;3.10;;;17.90;99.90;;;;;;5077491;28;20760;-78
2021/09/13 08:14:52;;;;;;;3.10;2.80;;;18.00;99.90;;;;;;5077188;28;20463;-78
2021/09/13 08:17:19;;;;;;;5.40;3.00;;;18.00;99.90;;;;;;5076876;28;20470;-78
2021/09/13 08:19:46;;;;;;;3.73;2.70;;;18.00;99.90;;;;;;5076180;28;20470;-77
2021/09/13 08:22:13;;;;;;;6.03;2.87;;;18.10;99.90;;;;;;5075642;28;20937;-77
2021/09/13 08:24:41;;;;;;;4.57;2.93;;;18.10;99.90;;;;;;5074897;28;20799;-78
2021/09/13 08:27:10;;;;;;;5.80;2.87;;;18.10;99.90;;;;;;5076368;28;20465;-77
2021/09/13 08:29:36;;;;;;;5.60;3.30;;;18.20;99.90;;;;;;5077192;28;20481;-78
2021/09/13 08:32:05;;;;;;;5.23;3.10;;;18.30;99.90;;;;;;5078819;28;20455;-77
2021/09/13 08:34:32;;;;;;;2.93;2.53;;;18.30;99.90;;;;;;5077622;28;20476;-77
2021/09/13 08:36:59;;;;;;;3.47;2.63;;;18.40;99.90;;;;;;5076661;28;20456;-78
2021/09/13 08:39:25;;;;;;;4.00;2.70;;;18.60;99.90;;;;;;5076541;28;20461;-78
2021/09/13 08:41:52;;;;;;;3.07;2.60;;;18.60;99.90;;;;;;5076147;28;20466;-79
2021/09/13 08:44:20;;;;;;;4.73;3.50;;;18.70;99.90;;;;;;5076354;28;20454;-78
2021/09/13 08:46:50;;;;;;;6.03;2.97;;;18.70;99.90;;;;;;5076382;28;20902;-78
2021/09/13 08:49:28;;;;;;;3.73;2.80;;;18.80;99.90;;;;;;5077198;28;20485;-78
2021/09/13 08:51:55;;;;;;;3.03;2.47;;;18.80;99.90;;;;;;5074987;28;20843;-78
2021/09/13 08:54:24;;;;;;;3.53;2.70;;;19.00;99.90;;;;;;5076399;28;20470;-77
2021/09/13 08:56:55;;;;;;;3.90;2.37;;;19.10;99.90;;;;;;5076098;28;20642;-77
2021/09/13 08:59:24;;;;;;;5.17;3.07;;;19.10;99.90;;;;;;5076085;28;20444;-79
2021/09/13 09:01:52;;;;;;;3.60;2.60;;;19.10;99.90;;;;;;5075978;28;20539;-77
2021/09/13 09:04:23;;;;;;;7.27;2.50;;;19.10;99.90;;;;;;5076232;28;20871;-77
2021/09/13 09:06:51;;;;;;;7.47;2.70;;;19.00;99.90;;;;;;5075009;28;20504;-78
2021/09/13 09:09:22;;;;;;;6.60;3.37;;;19.00;99.90;;;;;;5077072;28;20485;-78
2021/09/13 09:11:56;;;;;;;2.63;2.00;;;19.00;99.90;;;;;;5080341;28;20475;-78
2021/09/13 09:14:35;;;;;;;3.50;2.30;;;19.10;99.90;;;;;;5079334;28;20499;-77
2021/09/13 09:17:05;;;;;;;3.40;2.33;;;19.20;99.90;;;;;;5075497;28;20441;-78
2021/09/13 09:19:33;;;;;;;3.87;2.13;;;19.30;99.90;;;;;;5074413;28;20557;-77
2021/09/13 09:22:19;;;;;;;3.30;2.30;;;19.40;99.90;;;;;;5074581;28;20460;-77
2021/09/13 09:24:46;;;;;;;2.83;2.57;;;19.50;99.90;;;;;;5074958;28;20440;-78
2021/09/13 09:27:13;;;;;;;3.00;2.50;;;19.60;99.90;;;;;;5074593;28;20492;-78
2021/09/13 09:29:40;;;;;;;2.70;1.80;;;19.80;99.90;;;;;;5076357;28;20482;-78
2021/09/13 09:32:07;;;;;;;2.60;2.10;;;19.70;99.90;;;;;;5077459;28;20455;-78
2021/09/13 09:34:37;;;;;;;4.67;2.60;;;19.50;99.90;;;;;;5075837;28;20450;-76
2021/09/13 09:37:08;;;;;;;2.80;2.23;;;19.40;99.90;;;;;;5079234;28;20441;-78
2021/09/13 09:39:37;;;;;;;4.07;2.40;;;19.50;99.90;;;;;;5080686;28;20449;-79
2021/09/13 09:42:05;;;;;;;3.00;2.70;;;19.50;99.90;;;;;;5080120;28;20454;-77
2021/09/13 09:44:33;;;;;;;4.10;3.40;;;19.60;99.90;;;;;;5079371;28;20452;-78
2021/09/13 09:47:05;;;;;;;3.73;2.43;;;19.50;99.90;;;;;;5080880;28;20513;-79
2021/09/13 09:49:44;;;;;;;3.10;2.63;;;19.40;99.90;;;;;;5079270;28;20484;-77
2021/09/13 09:52:11;;;;;;;4.33;2.90;;;19.50;99.90;;;;;;5079559;28;20461;-77
2021/09/13 09:54:38;;;;;;;3.67;3.30;;;19.50;99.90;;;;;;5079734;28;20457;-77
2021/09/13 09:57:06;;;;;;;4.33;2.97;;;19.50;99.90;;;;;;5080428;28;20454;-77
2021/09/13 09:59:34;;;;;;;3.90;2.93;;;19.50;99.90;;;;;;5080545;28;20458;-77
2021/09/13 10:02:11;;;;;;;3.90;2.50;;;19.50;99.90;;;;;;5080725;28;20466;-77
2021/09/13 10:04:37;;;;;;;5.53;3.03;;;19.60;99.90;;;;;;5082563;28;20441;-78
2021/09/13 10:07:06;;;;;;;3.60;2.33;;;19.70;99.90;;;;;;5084786;28;20461;-78
2021/09/13 10:09:33;;;;;;;2.50;2.30;;;19.60;99.90;;;;;;5080623;28;20811;-78
2021/09/13 10:12:02;;;;;;;3.03;2.00;;;19.60;99.90;;;;;;5080364;28;20455;-78
2021/09/13 10:14:30;;;;;;;2.47;2.27;;;19.70;99.90;;;;;;5082775;28;20476;-78
2021/09/13 10:16:59;;;;;;;3.63;2.33;;;19.70;99.90;;;;;;5080981;28;20492;-77
2021/09/13 10:19:27;;;;;;;2.97;2.43;;;19.70;99.90;;;;;;5080762;28;20463;-79
2021/09/13 10:21:55;;;;;;;4.60;2.23;;;19.90;99.90;;;;;;5082177;28;20575;-77
2021/09/13 10:24:25;;;;;;;2.10;1.90;;;20.00;99.90;;;;;;5085251;28;20473;-78
2021/09/13 10:26:57;;;;;;;3.60;2.07;;;20.10;99.90;;;;;;5086156;28;20922;-78
2021/09/13 10:29:27;;;;;;;3.43;2.27;;;20.00;99.90;;;;;;5088659;28;20449;-78
2021/09/13 10:31:56;;;;;;;3.63;2.10;;;19.80;99.90;;;;;;5086845;28;20450;-79
2021/09/13 10:34:30;;;;;;;2.77;2.47;;;19.70;99.90;;;;;;5090744;28;20458;-77
2021/09/13 10:37:06;;;;;;;3.50;2.13;;;19.70;99.90;;;;;;5085392;28;20438;-78
2021/09/13 10:39:58;;;;;;;3.57;1.90;;;19.70;99.90;;;;;;5091514;28;20446;-78
2021/09/13 10:42:44;;;;;;;2.87;2.57;;;19.80;99.90;;;;;;5088914;28;20495;-78
2021/09/13 10:45:17;;;;;;;2.53;2.10;;;19.90;99.90;;;;;;5092178;28;20419;-78
2021/09/13 10:47:46;;;;;;;3.60;2.33;;;19.90;99.90;;;;;;5090810;28;20439;-78
2021/09/13 10:50:15;;;;;;;2.03;1.93;;;20.00;99.90;;;;;;5086642;28;20486;-78
2021/09/13 10:52:42;;;;;;;2.93;1.90;;;20.10;99.90;;;;;;5085683;28;20467;-78
2021/09/13 10:55:24;;;;;;;4.23;2.10;;;20.20;99.90;;;;;;5085399;28;20447;-78
2021/09/13 10:58:11;;;;;;;2.03;1.77;;;20.20;99.90;;;;;;5086294;28;20439;-78
2021/09/13 11:01:01;;;;;;;2.40;1.80;;;20.20;99.90;;;;;;5079821;28;20438;-77
2021/09/13 11:03:39;;;;;;;4.20;1.97;;;20.20;99.90;;;;;;5078782;28;20477;-79
2021/09/13 11:06:25;;;;;;;8.43;2.20;;;20.20;99.90;;;;;;5079197;28;20502;-79
2021/09/13 11:08:53;;;;;;;5.40;1.90;;;20.30;99.90;;;;;;5078651;28;20801;-78
2021/09/13 11:11:25;;;;;;;3.07;2.20;;;20.30;99.90;;;;;;5081890;28;20486;-78
2021/09/13 11:13:57;;;;;;;4.10;2.07;;;20.30;99.90;;;;;;5081360;28;20446;-78
2021/09/13 11:16:25;;;;;;;2.93;1.90;;;20.20;99.90;;;;;;5081015;28;20889;-78
2021/09/13 11:18:53;;;;;;;3.53;1.80;;;20.20;99.90;;;;;;5082066;28;20511;-78
2021/09/13 11:21:24;;;;;;;3.60;1.90;;;20.20;99.90;;;;;;5079777;28;20477;-78
2021/09/13 11:23:53;;;;;;;4.90;2.10;;;20.20;99.90;;;;;;5079181;28;20442;-78
2021/09/13 11:26:32;;;;;;;4.07;2.43;;;20.20;99.90;;;;;;5077597;28;20496;-77
2021/09/13 11:29:00;;;;;;;3.40;1.73;;;20.20;99.90;;;;;;5077546;28;20466;-77
2021/09/13 11:31:34;;;;;;;2.30;2.10;;;20.30;99.90;;;;;;5078290;28;20497;-78
2021/09/13 11:34:05;;;;;;;2.57;1.93;;;20.40;99.90;;;;;;5078569;28;20442;-78
2021/09/13 11:36:32;;;;;;;5.70;2.00;;;20.50;99.90;;;;;;5078347;28;20453;-77
2021/09/13 11:39:04;;;;;;;2.23;1.93;;;20.60;99.90;;;;;;5077695;28;20560;-78
2021/09/13 11:41:33;;;;;;;5.13;2.50;;;20.70;99.90;;;;;;5077484;28;20437;-78
2021/09/13 11:44:04;;;;;;;3.40;2.30;;;20.70;99.90;;;;;;5078417;28;20468;-78
2021/09/13 11:46:30;;;;;;;2.60;2.40;;;20.60;99.90;;;;;;5079880;28;20776;-78
2021/09/13 11:49:16;;;;;;;4.30;2.60;;;20.50;99.90;;;;;;5077371;28;20541;-78
2021/09/13 11:52:17;;;;;;;4.23;2.73;;;20.30;99.90;;;;;;5077401;28;20475;-78
2021/09/13 11:54:52;;;;;;;3.10;2.80;;;20.30;99.90;;;;;;5077803;28;20434;-78
2021/09/13 11:57:37;;;;;;;2.77;2.57;;;20.40;99.90;;;;;;5080467;28;20442;-77
2021/09/13 12:00:13;;;;;;;2.57;2.37;;;20.70;99.90;;;;;;5078227;28;20431;-78
2021/09/13 12:02:42;;;;;;;4.13;2.17;;;20.80;99.90;;;;;;5077196;28;20769;-78
2021/09/13 12:05:12;;;;;;;5.90;2.90;;;21.00;99.90;;;;;;5076802;28;20801;-78
2021/09/13 12:07:39;;;;;;;2.73;2.07;;;21.20;99.90;;;;;;5076546;28;20535;-78
2021/09/13 12:10:08;;;;;;;2.43;2.00;;;21.30;99.90;;;;;;5075871;28;20867;-78
2021/09/13 12:12:37;;;;;;;4.63;2.93;;;21.30;99.90;;;;;;5078335;28;20478;-78
2021/09/13 12:15:07;;;;;;;2.37;1.97;;;21.40;99.90;;;;;;5080309;28;20458;-78
2021/09/13 12:17:39;;;;;;;3.30;2.20;;;21.30;99.90;;;;;;5084347;28;20462;-78
2021/09/13 12:20:21;;;;;;;2.30;2.10;;;21.20;99.90;;;;;;5081691;28;20448;-78
2021/09/13 12:22:49;;;;;;;7.90;2.27;;;21.20;99.90;;;;;;5081505;28;20442;-78
2021/09/13 12:25:18;;;;;;;4.80;2.17;;;21.20;99.90;;;;;;5077370;28;20795;-79
2021/09/13 12:27:49;;;;;;;2.63;1.90;;;21.10;99.90;;;;;;5076979;28;20443;-78
2021/09/13 12:30:21;;;;;;;3.37;1.53;;;21.00;99.90;;;;;;5076996;28;20489;-80
2021/09/13 12:32:54;;;;;;;3.77;2.10;;;20.80;99.90;;;;;;5076364;28;20759;-78
2021/09/13 12:35:31;;;;;;;5.00;1.93;;;20.70;99.90;;;;;;5076044;28;20439;-77
2021/09/13 12:37:59;;;;;;;3.50;1.77;;;20.70;99.90;;;;;;5077118;28;20443;-78
2021/09/13 12:40:25;;;;;;;2.10;1.73;;;20.60;99.90;;;;;;5078340;28;20464;-78
2021/09/13 12:42:56;;;;;;;3.00;2.03;;;20.40;99.90;;;;;;5080530;28;20469;-78
2021/09/13 12:45:25;;;;;;;2.33;1.83;;;20.30;99.90;;;;;;5077596;28;20450;-79
2021/09/13 12:47:54;;;;;;;2.00;1.70;;;20.30;99.90;;;;;;5077385;28;20470;-78
2021/09/13 12:50:32;;;;;;;2.80;1.50;;;20.30;99.90;;;;;;5076267;28;20474;-79